Aviation Digital Data Service (ADDS)

Output produced by METARs form (1514 UTC 21 May 2019)
found at http://www.aviationweather.gov/metar/data/
 
METAR text: DXXX 211500Z VRB02KT 9999 FEW014 30/24 Q1011 NOSIG
Conditions at: DXXX (LOME/TOKOIN (MIL, TG) observed 1500 UTC 21 May 2019
Temperature: 30.0°C (86°F)
Dewpoint: 24.0°C (75°F) [RH = 70%]
Pressure (altimeter): 29.85 inches Hg (1011.0 mb)
Winds: variable direction winds at 2 MPH (2 knots; 1.0 m/s)
Visibility: 6 or more miles (10+ km)
Ceiling: at least 12,000 feet AGL
Clouds: few clouds at 1400 feet AGL
Weather: no significant weather observed at this time

METAR text: DXXX 211400Z 04004KT 360V070 9999 FEW013 29/24 Q1011 NOSIG
Conditions at: DXXX (LOME/TOKOIN (MIL, TG) observed 1400 UTC 21 May 2019
Temperature: 29.0°C (84°F)
Dewpoint: 24.0°C (75°F) [RH = 74%]
Pressure (altimeter): 29.85 inches Hg (1011.0 mb)
Winds: from the NE (40 degrees) at 5 MPH (4 knots; 2.1 m/s)
Visibility: 6 or more miles (10+ km)
Ceiling: at least 12,000 feet AGL
Clouds: few clouds at 1300 feet AGL
Weather: no significant weather observed at this time

METAR text: DXXX 211300Z 08006KT 050V120 9999 SCT014 30/25 Q1013 NOSIG
Conditions at: DXXX (LOME/TOKOIN (MIL, TG) observed 1300 UTC 21 May 2019
Temperature: 30.0°C (86°F)
Dewpoint: 25.0°C (77°F) [RH = 75%]
Pressure (altimeter): 29.91 inches Hg (1013.0 mb)
Winds: from the E (80 degrees) at 7 MPH (6 knots; 3.1 m/s)
Visibility: 6 or more miles (10+ km)
Ceiling: at least 12,000 feet AGL
Clouds: scattered clouds at 1400 feet AGL
Weather: no significant weather observed at this time

METAR text: DXXX 211200Z 19004KT 140V230 9999 FEW014 SCT030 30/24 Q1013 NOSIG
Conditions at: DXXX (LOME/TOKOIN (MIL, TG) observed 1200 UTC 21 May 2019
Temperature: 30.0°C (86°F)
Dewpoint: 24.0°C (75°F) [RH = 70%]
Pressure (altimeter): 29.91 inches Hg (1013.0 mb)
Winds: from the S (190 degrees) at 5 MPH (4 knots; 2.1 m/s)
Visibility: 6 or more miles (10+ km)
Ceiling: at least 12,000 feet AGL
Clouds: few clouds at 1400 feet AGL
scattered clouds at 3000 feet AGL
Weather: no significant weather observed at this time

METAR text: DXXX 210900Z 24005KT 200V280 9999 FEW011 28/24 Q1014 NOSIG
Conditions at: DXXX (LOME/TOKOIN (MIL, TG) observed 0900 UTC 21 May 2019
Temperature: 28.0°C (82°F)
Dewpoint: 24.0°C (75°F) [RH = 79%]
Pressure (altimeter): 29.94 inches Hg (1014.0 mb)
Winds: from the WSW (240 degrees) at 6 MPH (5 knots; 2.6 m/s)
Visibility: 6 or more miles (10+ km)
Ceiling: at least 12,000 feet AGL
Clouds: few clouds at 1100 feet AGL
Weather: no significant weather observed at this time

METAR text: DXXX 210800Z VRB03KT 8000 FEW010 27/24 Q1014 NOSIG
Conditions at: DXXX (LOME/TOKOIN (MIL, TG) observed 0800 UTC 21 May 2019
Temperature: 27.0°C (81°F)
Dewpoint: 24.0°C (75°F) [RH = 84%]
Pressure (altimeter): 29.94 inches Hg (1014.0 mb)
Winds: variable direction winds at 3 MPH (3 knots; 1.5 m/s)
Visibility: 5 miles ( 8 km)
Ceiling: at least 12,000 feet AGL
Clouds: few clouds at 1000 feet AGL
Weather: no significant weather observed at this time

METAR text: DXXX 210700Z VRB02KT 8000 FEW010 25/23 Q1013 NOSIG
Conditions at: DXXX (LOME/TOKOIN (MIL, TG) observed 0700 UTC 21 May 2019
Temperature: 25.0°C (77°F)
Dewpoint: 23.0°C (73°F) [RH = 89%]
Pressure (altimeter): 29.91 inches Hg (1013.0 mb)
Winds: variable direction winds at 2 MPH (2 knots; 1.0 m/s)
Visibility: 5 miles ( 8 km)
Ceiling: at least 12,000 feet AGL
Clouds: few clouds at 1000 feet AGL
Weather: no significant weather observed at this time

METAR text: DXXX 210600Z VRB02KT 9999 FEW010 25/23 Q1012 NOSIG
Conditions at: DXXX (LOME/TOKOIN (MIL, TG) observed 0600 UTC 21 May 2019
Temperature: 25.0°C (77°F)
Dewpoint: 23.0°C (73°F) [RH = 89%]
Pressure (altimeter): 29.88 inches Hg (1012.0 mb)
Winds: variable direction winds at 2 MPH (2 knots; 1.0 m/s)
Visibility: 6 or more miles (10+ km)
Ceiling: at least 12,000 feet AGL
Clouds: few clouds at 1000 feet AGL
Weather: no significant weather observed at this time

METAR text: DXXX 210500Z 26005KT 8000 FEW010 25/23 Q1011 NOSIG
Conditions at: DXXX (LOME/TOKOIN (MIL, TG) observed 0500 UTC 21 May 2019
Temperature: 25.0°C (77°F)
Dewpoint: 23.0°C (73°F) [RH = 89%]
Pressure (altimeter): 29.85 inches Hg (1011.0 mb)
Winds: from the W (260 degrees) at 6 MPH (5 knots; 2.6 m/s)
Visibility: 5 miles ( 8 km)
Ceiling: at least 12,000 feet AGL
Clouds: few clouds at 1000 feet AGL
Weather: no significant weather observed at this time

METAR text: DXXX 210400Z 29004KT 260V320 8000 FEW010 25/23 Q1010 NOSIG
Conditions at: DXXX (LOME/TOKOIN (MIL, TG) observed 0400 UTC 21 May 2019
Temperature: 25.0°C (77°F)
Dewpoint: 23.0°C (73°F) [RH = 89%]
Pressure (altimeter): 29.82 inches Hg (1010.0 mb)
Winds: from the WNW (290 degrees) at 5 MPH (4 knots; 2.1 m/s)
Visibility: 5 miles ( 8 km)
Ceiling: at least 12,000 feet AGL
Clouds: few clouds at 1000 feet AGL
Weather: no significant weather observed at this time

METAR text: DXXX 210300Z 29005KT 8000 FEW010 25/22 Q1011 RETS NOSIG
Conditions at: DXXX (LOME/TOKOIN (MIL, TG) observed 0300 UTC 21 May 2019
Temperature: 25.0°C (77°F)
Dewpoint: 22.0°C (72°F) [RH = 83%]
Pressure (altimeter): 29.85 inches Hg (1011.0 mb)
Winds: from the WNW (290 degrees) at 6 MPH (5 knots; 2.6 m/s)
Visibility: 5 miles ( 8 km)
Ceiling: at least 12,000 feet AGL
Clouds: few clouds at 1000 feet AGL
Weather: no significant weather observed at this time

METAR text: DXXX 210200Z 28005KT 9999 TS FEW010 FEW020CB 25/22 Q1012 NOSIG
Conditions at: DXXX (LOME/TOKOIN (MIL, TG) observed 0200 UTC 21 May 2019
Temperature: 25.0°C (77°F)
Dewpoint: 22.0°C (72°F) [RH = 83%]
Pressure (altimeter): 29.88 inches Hg (1012.0 mb)
Winds: from the W (280 degrees) at 6 MPH (5 knots; 2.6 m/s)
Visibility: 6 or more miles (10+ km)
Ceiling: at least 12,000 feet AGL
Clouds: few clouds at 1000 feet AGL
few clouds at 2000 feet AGL
Weather: TS  (thunderstorm)

METAR text: DXXX 210100Z 29004KT 9999 TS FEW010 FEW020CB 25/23 Q1013 NOSIG
Conditions at: DXXX (LOME/TOKOIN (MIL, TG) observed 0100 UTC 21 May 2019
Temperature: 25.0°C (77°F)
Dewpoint: 23.0°C (73°F) [RH = 89%]
Pressure (altimeter): 29.91 inches Hg (1013.0 mb)
Winds: from the WNW (290 degrees) at 5 MPH (4 knots; 2.1 m/s)
Visibility: 6 or more miles (10+ km)
Ceiling: at least 12,000 feet AGL
Clouds: few clouds at 1000 feet AGL
few clouds at 2000 feet AGL
Weather: TS  (thunderstorm)

METAR text: DXXX 210000Z 28003KT 9999 FEW010 25/23 Q1013 NOSIG
Conditions at: DXXX (LOME/TOKOIN (MIL, TG) observed 0000 UTC 21 May 2019
Temperature: 25.0°C (77°F)
Dewpoint: 23.0°C (73°F) [RH = 89%]
Pressure (altimeter): 29.91 inches Hg (1013.0 mb)
Winds: from the W (280 degrees) at 3 MPH (3 knots; 1.5 m/s)
Visibility: 6 or more miles (10+ km)
Ceiling: at least 12,000 feet AGL
Clouds: few clouds at 1000 feet AGL
Weather: no significant weather observed at this time

METAR text: DXXX 202300Z 26002KT 9999 FEW010 25/23 Q1014 NOSIG
Conditions at: DXXX (LOME/TOKOIN (MIL, TG) observed 2300 UTC 20 May 2019
Temperature: 25.0°C (77°F)
Dewpoint: 23.0°C (73°F) [RH = 89%]
Pressure (altimeter): 29.94 inches Hg (1014.0 mb)
Winds: from the W (260 degrees) at 2 MPH (2 knots; 1.0 m/s)
Visibility: 6 or more miles (10+ km)
Ceiling: at least 12,000 feet AGL
Clouds: few clouds at 1000 feet AGL
Weather: no significant weather observed at this time

METAR text: DXXX 202200Z 24006KT 9999 FEW010 25/24 Q1013 NOSIG
Conditions at: DXXX (LOME/TOKOIN (MIL, TG) observed 2200 UTC 20 May 2019
Temperature: 25.0°C (77°F)
Dewpoint: 24.0°C (75°F) [RH = 94%]
Pressure (altimeter): 29.91 inches Hg (1013.0 mb)
Winds: from the WSW (240 degrees) at 7 MPH (6 knots; 3.1 m/s)
Visibility: 6 or more miles (10+ km)
Ceiling: at least 12,000 feet AGL
Clouds: few clouds at 1000 feet AGL
Weather: no significant weather observed at this time

METAR text: DXXX 202100Z 26003KT 9999 FEW010 25/24 Q1013 NOSIG
Conditions at: DXXX (LOME/TOKOIN (MIL, TG) observed 2100 UTC 20 May 2019
Temperature: 25.0°C (77°F)
Dewpoint: 24.0°C (75°F) [RH = 94%]
Pressure (altimeter): 29.91 inches Hg (1013.0 mb)
Winds: from the W (260 degrees) at 3 MPH (3 knots; 1.5 m/s)
Visibility: 6 or more miles (10+ km)
Ceiling: at least 12,000 feet AGL
Clouds: few clouds at 1000 feet AGL
Weather: no significant weather observed at this time

METAR text: DXXX 202000Z VRB02KT 9999 FEW010 25/24 Q1012 NOSIG
Conditions at: DXXX (LOME/TOKOIN (MIL, TG) observed 2000 UTC 20 May 2019
Temperature: 25.0°C (77°F)
Dewpoint: 24.0°C (75°F) [RH = 94%]
Pressure (altimeter): 29.88 inches Hg (1012.0 mb)
Winds: variable direction winds at 2 MPH (2 knots; 1.0 m/s)
Visibility: 6 or more miles (10+ km)
Ceiling: at least 12,000 feet AGL
Clouds: few clouds at 1000 feet AGL
Weather: no significant weather observed at this time

METAR text: DXXX 201900Z 30002KT 9999 FEW010 26/24 Q1011 NOSIG
Conditions at: DXXX (LOME/TOKOIN (MIL, TG) observed 1900 UTC 20 May 2019
Temperature: 26.0°C (79°F)
Dewpoint: 24.0°C (75°F) [RH = 89%]
Pressure (altimeter): 29.85 inches Hg (1011.0 mb)
Winds: from the WNW (300 degrees) at 2 MPH (2 knots; 1.0 m/s)
Visibility: 6 or more miles (10+ km)
Ceiling: at least 12,000 feet AGL
Clouds: few clouds at 1000 feet AGL
Weather: no significant weather observed at this time

METAR text: DXXX 201800Z 29004KT 270V330 9999 FEW010 26/24 Q1010 NOSIG
Conditions at: DXXX (LOME/TOKOIN (MIL, TG) observed 1800 UTC 20 May 2019
Temperature: 26.0°C (79°F)
Dewpoint: 24.0°C (75°F) [RH = 89%]
Pressure (altimeter): 29.82 inches Hg (1010.0 mb)
Winds: from the WNW (290 degrees) at 5 MPH (4 knots; 2.1 m/s)
Visibility: 6 or more miles (10+ km)
Ceiling: at least 12,000 feet AGL
Clouds: few clouds at 1000 feet AGL
Weather: no significant weather observed at this time

METAR text: DXXX 201700Z 28004KT 9999 FEW010 27/24 Q1010 NOSIG
Conditions at: DXXX (LOME/TOKOIN (MIL, TG) observed 1700 UTC 20 May 2019
Temperature: 27.0°C (81°F)
Dewpoint: 24.0°C (75°F) [RH = 84%]
Pressure (altimeter): 29.82 inches Hg (1010.0 mb)
Winds: from the W (280 degrees) at 5 MPH (4 knots; 2.1 m/s)
Visibility: 6 or more miles (10+ km)
Ceiling: at least 12,000 feet AGL
Clouds: few clouds at 1000 feet AGL
Weather: no significant weather observed at this time

METAR text: DXXX 201600Z 27007KT 9999 FEW010 27/24 Q1010 NOSIG
Conditions at: DXXX (LOME/TOKOIN (MIL, TG) observed 1600 UTC 20 May 2019
Temperature: 27.0°C (81°F)
Dewpoint: 24.0°C (75°F) [RH = 84%]
Pressure (altimeter): 29.82 inches Hg (1010.0 mb)
Winds: from the W (270 degrees) at 8 MPH (7 knots; 3.6 m/s)
Visibility: 6 or more miles (10+ km)
Ceiling: at least 12,000 feet AGL
Clouds: few clouds at 1000 feet AGL
Weather: no significant weather observed at this time

METAR text: DXXX 201500Z 23012KT 9999 FEW010 26/25 Q1010 NOSIG
Conditions at: DXXX (LOME/TOKOIN (MIL, TG) observed 1500 UTC 20 May 2019
Temperature: 26.0°C (79°F)
Dewpoint: 25.0°C (77°F) [RH = 94%]
Pressure (altimeter): 29.82 inches Hg (1010.0 mb)
Winds: from the SW (230 degrees) at 14 MPH (12 knots; 6.2 m/s)
Visibility: 6 or more miles (10+ km)
Ceiling: at least 12,000 feet AGL
Clouds: few clouds at 1000 feet AGL
Weather: no significant weather observed at this time

METAR text: DXXX 201400Z 24011KT 7000 -TSRA SCT010 FEW020CB 25/24 Q1011 NOSIG
Conditions at: DXXX (LOME/TOKOIN (MIL, TG) observed 1400 UTC 20 May 2019
Temperature: 25.0°C (77°F)
Dewpoint: 24.0°C (75°F) [RH = 94%]
Pressure (altimeter): 29.85 inches Hg (1011.0 mb)
Winds: from the WSW (240 degrees) at 13 MPH (11 knots; 5.7 m/s)
Visibility: 4 miles ( 7 km)
Ceiling: at least 12,000 feet AGL
Clouds: scattered clouds at 1000 feet AGL
few clouds at 2000 feet AGL
Weather: -TSRA  (light rain associated with thunderstorm(s))

METAR text: DXXX 201300Z 24015KT 7000 -TSRA FEW010 FEW020CB 25/24 Q1012 NOSIG
Conditions at: DXXX (LOME/TOKOIN (MIL, TG) observed 1300 UTC 20 May 2019
Temperature: 25.0°C (77°F)
Dewpoint: 24.0°C (75°F) [RH = 94%]
Pressure (altimeter): 29.88 inches Hg (1012.0 mb)
Winds: from the WSW (240 degrees) at 17 MPH (15 knots; 7.7 m/s)
Visibility: 4 miles ( 7 km)
Ceiling: at least 12,000 feet AGL
Clouds: few clouds at 1000 feet AGL
few clouds at 2000 feet AGL
Weather: -TSRA  (light rain associated with thunderstorm(s))

METAR text: DXXX 201200Z 18004KT 150V230 7000 -TSRA SCT010 SCT020CB 26/25 Q1014 TEMPO 4000 TSRA
Conditions at: DXXX (LOME/TOKOIN (MIL, TG) observed 1200 UTC 20 May 2019
Temperature: 26.0°C (79°F)
Dewpoint: 25.0°C (77°F) [RH = 94%]
Pressure (altimeter): 29.94 inches Hg (1014.0 mb)
Winds: from the S (180 degrees) at 5 MPH (4 knots; 2.1 m/s)
Visibility: 4 miles ( 7 km)
Ceiling: at least 12,000 feet AGL
Clouds: scattered clouds at 1000 feet AGL
scattered clouds at 2000 feet AGL
Weather: -TSRA  (light rain associated with thunderstorm(s))

METAR text: DXXX 201100Z 16004KT 130V190 6000 -TSRA SCT010 FEW020CB SCT030 26/25 Q1015 NOSIG
Conditions at: DXXX (LOME/TOKOIN (MIL, TG) observed 1100 UTC 20 May 2019
Temperature: 26.0°C (79°F)
Dewpoint: 25.0°C (77°F) [RH = 94%]
Pressure (altimeter): 29.97 inches Hg (1015.0 mb)
Winds: from the SSE (160 degrees) at 5 MPH (4 knots; 2.1 m/s)
Visibility: 4 miles ( 6 km)
Ceiling: at least 12,000 feet AGL
Clouds: scattered clouds at 1000 feet AGL
few clouds at 2000 feet AGL
scattered clouds at 3000 feet AGL
Weather: -TSRA  (light rain associated with thunderstorm(s))

METAR text: DXXX 201000Z 22006KT 4500 TSRA SCT010 SCT020CB 24/24 Q1015 RETSRA NOSIG
Conditions at: DXXX (LOME/TOKOIN (MIL, TG) observed 1000 UTC 20 May 2019
Temperature: 24.0°C (75°F)
Dewpoint: 24.0°C (75°F) [RH = 100%]
Pressure (altimeter): 29.97 inches Hg (1015.0 mb)
Winds: from the SW (220 degrees) at 7 MPH (6 knots; 3.1 m/s)
Visibility: 2.80 miles (4.51 km)
Ceiling: at least 12,000 feet AGL
Clouds: scattered clouds at 1000 feet AGL
scattered clouds at 2000 feet AGL
Weather: TSRA  (rain associated with thunderstorm(s))

METAR text: DXXX 200900Z 23008KT 9999 TS FEW012 FEW020CB 28/25 Q1014 BECMG 4000 TSRA BKN010 FEW020CB
Conditions at: DXXX (LOME/TOKOIN (MIL, TG) observed 0900 UTC 20 May 2019
Temperature: 28.0°C (82°F)
Dewpoint: 25.0°C (77°F) [RH = 84%]
Pressure (altimeter): 29.94 inches Hg (1014.0 mb)
Winds: from the SW (230 degrees) at 9 MPH (8 knots; 4.1 m/s)
Visibility: 6 or more miles (10+ km)
Ceiling: at least 12,000 feet AGL
Clouds: few clouds at 1200 feet AGL
few clouds at 2000 feet AGL
Weather: TS  (thunderstorm)

METAR text: DXXX 200800Z 25008KT 9999 TS FEW012 FEW020CB 28/25 Q1013 BECMG 4000 TSRA BKN012 FEW020CB
Conditions at: DXXX (LOME/TOKOIN (MIL, TG) observed 0800 UTC 20 May 2019
Temperature: 28.0°C (82°F)
Dewpoint: 25.0°C (77°F) [RH = 84%]
Pressure (altimeter): 29.91 inches Hg (1013.0 mb)
Winds: from the WSW (250 degrees) at 9 MPH (8 knots; 4.1 m/s)
Visibility: 6 or more miles (10+ km)
Ceiling: at least 12,000 feet AGL
Clouds: few clouds at 1200 feet AGL
few clouds at 2000 feet AGL
Weather: TS  (thunderstorm)

METAR text: DXXX 200700Z 26006KT 230V290 8000 TS FEW012 FEW020CB 27/25 Q1012 NOSIG
Conditions at: DXXX (LOME/TOKOIN (MIL, TG) observed 0700 UTC 20 May 2019
Temperature: 27.0°C (81°F)
Dewpoint: 25.0°C (77°F) [RH = 89%]
Pressure (altimeter): 29.88 inches Hg (1012.0 mb)
Winds: from the W (260 degrees) at 7 MPH (6 knots; 3.1 m/s)
Visibility: 5 miles ( 8 km)
Ceiling: at least 12,000 feet AGL
Clouds: few clouds at 1200 feet AGL
few clouds at 2000 feet AGL
Weather: TS  (thunderstorm)

METAR text: DXXX 200600Z 27005KT 8000 TS FEW011 FEW020CB 26/25 Q1011 NOSIG
Conditions at: DXXX (LOME/TOKOIN (MIL, TG) observed 0600 UTC 20 May 2019
Temperature: 26.0°C (79°F)
Dewpoint: 25.0°C (77°F) [RH = 94%]
Pressure (altimeter): 29.85 inches Hg (1011.0 mb)
Winds: from the W (270 degrees) at 6 MPH (5 knots; 2.6 m/s)
Visibility: 5 miles ( 8 km)
Ceiling: at least 12,000 feet AGL
Clouds: few clouds at 1100 feet AGL
few clouds at 2000 feet AGL
Weather: TS  (thunderstorm)

METAR text: DXXX 200500Z 27005KT 8000 TS FEW012 FEW020CB 27/25 Q1011 NOSIG
Conditions at: DXXX (LOME/TOKOIN (MIL, TG) observed 0500 UTC 20 May 2019
Temperature: 27.0°C (81°F)
Dewpoint: 25.0°C (77°F) [RH = 89%]
Pressure (altimeter): 29.85 inches Hg (1011.0 mb)
Winds: from the W (270 degrees) at 6 MPH (5 knots; 2.6 m/s)
Visibility: 5 miles ( 8 km)
Ceiling: at least 12,000 feet AGL
Clouds: few clouds at 1200 feet AGL
few clouds at 2000 feet AGL
Weather: TS  (thunderstorm)

METAR text: DXXX 200400Z 28005KT 8000 TS FEW012 FEW020CB 27/26 Q1010 NOSIG
Conditions at: DXXX (LOME/TOKOIN (MIL, TG) observed 0400 UTC 20 May 2019
Temperature: 27.0°C (81°F)
Dewpoint: 26.0°C (79°F) [RH = 94%]
Pressure (altimeter): 29.82 inches Hg (1010.0 mb)
Winds: from the W (280 degrees) at 6 MPH (5 knots; 2.6 m/s)
Visibility: 5 miles ( 8 km)
Ceiling: at least 12,000 feet AGL
Clouds: few clouds at 1200 feet AGL
few clouds at 2000 feet AGL
Weather: TS  (thunderstorm)

Forecast for: DXXX (LOME/TOKOIN (MIL, TG)
Text: TAF DXXX 211100Z 2112/2218 20010KT 9999 FEW015
Forecast period: 1200 to 2200 UTC 21 May 2019
Forecast type: FROM: standard forecast or significant change
Winds: from the SSW (200 degrees) at 12 MPH (10 knots; 5.1 m/s)
Visibility: 6 or more miles 10+ km)
Ceiling: at least 12,000 feet AGL
Clouds: few clouds at 1500 feet AGL
Weather: no significant weather forecast for this period
Text: PROB30
Forecast period: 1600 to 2100 UTC 21 May 2019
Forecast type: TEMPORARY: The following changes expected for less than half the time period
Visibility: missing
Ceiling: 1000 feet AGL
Clouds: broken clouds at 1000 feet AGL
few clouds at 2000 feet AGL
Weather: TS  (thunderstorm)
Text: TEMPO 2116/2121 TS BKN010 FEW020CB
Forecast period: 2200 UTC 21 May 2019 to 0800 UTC 22 May 2019
Forecast type: BECOMING: Conditions expected to become as follows by 0000 UTC 22 May 2019
Winds: from the W (260 degrees) at 6 MPH (5 knots; 2.6 m/s)
Visibility: 6 or more miles 10+ km)
Ceiling: at least 12,000 feet AGL
Clouds: few clouds at 1500 feet AGL
Weather: no significant weather forecast for this period
Text: BECMG 2122/2124 26005KT
Forecast period: 0800 to 1800 UTC 22 May 2019
Forecast type: BECOMING: Conditions expected to become as follows by 1000 UTC 22 May 2019
Winds: from the SSW (200 degrees) at 12 MPH (10 knots; 5.1 m/s)
Visibility: 6 or more miles 10+ km)
Ceiling: at least 12,000 feet AGL
Clouds: few clouds at 1500 feet AGL
Weather: no significant weather forecast for this period